Time;durP1;ratioP1;P1;durP2;ratioP2;P2;SDS_P1;SDS_P2;PMS_P1;PMS_P2;Temp;Humidity;BMP_temperature;BMP_pressure;BME280_temperature;BME280_humidity;BME280_pressure;Samples;Min_cycle;Max_cycle;Signal;HPM_P1;HPM_P2
2023/01/17 00:01:06;;;;;;;11.05;8.48;;;3.80;99.90;;;;;;5014535;28;20421;-64
2023/01/17 00:03:33;;;;;;;10.20;8.73;;;3.70;99.90;;;;;;5016977;28;20917;-64
2023/01/17 00:11:28;;;;;;;10.43;8.35;;;3.60;99.90;;;;;;5020183;28;20415;-65
2023/01/17 00:13:56;;;;;;;12.25;8.18;;;3.60;99.90;;;;;;5020165;28;20411;-64
2023/01/17 00:16:23;;;;;;;8.75;7.75;;;3.70;99.90;;;;;;5012806;28;20420;-64
2023/01/17 01:33:38;;;;;;;4.53;3.60;;;3.20;99.90;;;;;;5017179;28;20407;-64
2023/01/17 01:36:08;;;;;;;3.90;3.20;;;3.10;99.90;;;;;;5017867;28;20509;-64
2023/01/17 01:38:34;;;;;;;4.55;3.47;;;3.00;99.90;;;;;;5017318;28;20433;-64
2023/01/17 01:41:01;;;;;;;3.77;2.83;;;3.10;99.90;;;;;;5018809;28;20504;-64
2023/01/17 01:43:44;;;;;;;5.15;2.65;;;2.90;99.90;;;;;;5014808;28;20469;-63
2023/01/17 01:46:13;;;;;;;4.78;3.10;;;2.90;99.90;;;;;;5013535;28;20417;-64
2023/01/17 01:48:43;;;;;;;4.55;3.08;;;2.90;99.90;;;;;;5016388;28;20420;-64
2023/01/17 01:51:17;;;;;;;5.60;3.45;;;2.90;99.90;;;;;;5020220;28;20476;-64
2023/01/17 01:53:47;;;;;;;5.85;3.10;;;2.90;99.90;;;;;;5021166;28;20891;-64
2023/01/17 01:56:15;;;;;;;5.70;3.42;;;2.90;99.90;;;;;;5016594;28;20428;-64
2023/01/17 01:58:45;;;;;;;6.25;3.50;;;2.90;99.90;;;;;;5024743;28;20933;-64
2023/01/17 02:01:13;;;;;;;5.03;3.45;;;3.00;99.90;;;;;;5020538;28;20424;-64
2023/01/17 02:03:41;;;;;;;5.75;3.75;;;3.00;99.90;;;;;;5022780;28;20427;-64
2023/01/17 02:06:25;;;;;;;4.88;3.47;;;3.00;99.90;;;;;;5020651;28;20422;-64
2023/01/17 02:08:52;;;;;;;6.65;3.40;;;3.00;99.90;;;;;;5019982;28;20411;-64
2023/01/17 02:11:19;;;;;;;5.20;2.92;;;3.00;99.90;;;;;;5015830;28;20478;-64
2023/01/17 02:13:46;;;;;;;4.37;2.70;;;2.90;99.90;;;;;;5018722;28;20414;-64
2023/01/17 02:16:24;;;;;;;5.95;3.95;;;2.90;99.90;;;;;;5013987;28;20863;-64
2023/01/17 02:19:01;;;;;;;5.05;4.28;;;2.90;99.90;;;;;;5013638;28;20424;-64
2023/01/17 02:21:33;;;;;;;8.52;5.72;;;2.80;99.90;;;;;;5017741;28;20421;-64
2023/01/17 02:24:50;;;;;;;8.20;5.97;;;2.80;99.90;;;;;;5019744;28;20433;-64
2023/01/17 02:27:25;;;;;;;9.07;5.68;;;2.80;99.90;;;;;;5019681;28;20450;-64
2023/01/17 02:30:25;;;;;;;6.20;4.47;;;2.80;99.90;;;;;;5018169;28;20423;-64
2023/01/17 02:33:24;;;;;;;5.57;3.63;;;2.80;99.90;;;;;;5018211;28;20432;-64
2023/01/17 02:36:03;;;;;;;5.20;3.95;;;2.90;99.90;;;;;;4975174;28;20425;-64
2023/01/17 02:38:39;;;;;;;6.13;4.30;;;2.80;99.90;;;;;;5012376;28;20530;-64
2023/01/17 02:41:09;;;;;;;5.38;4.22;;;2.80;99.90;;;;;;5015967;28;20416;-64
2023/01/17 02:43:38;;;;;;;5.72;4.90;;;2.90;99.90;;;;;;5017868;28;20420;-64
2023/01/17 02:46:06;;;;;;;7.25;4.70;;;2.90;99.90;;;;;;5017152;28;20440;-64
2023/01/17 02:48:36;;;;;;;5.97;3.73;;;2.90;99.90;;;;;;5016745;28;20823;-64
2023/01/17 02:51:35;;;;;;;3.03;2.53;;;2.60;99.90;;;;;;5016369;28;20431;-64
2023/01/17 02:54:31;;;;;;;3.42;2.17;;;2.50;99.90;;;;;;5016819;28;20419;-64
2023/01/17 02:57:12;;;;;;;2.17;1.90;;;2.20;99.90;;;;;;5020952;28;20420;-64
2023/01/17 02:59:47;;;;;;;2.05;1.80;;;2.00;99.90;;;;;;5018022;28;20755;-64
2023/01/17 03:02:27;;;;;;;2.67;1.80;;;1.80;99.90;;;;;;5014602;28;20979;-63
2023/01/17 03:04:59;;;;;;;1.70;1.40;;;1.50;99.90;;;;;;5014959;28;20491;-63
2023/01/17 03:07:28;;;;;;;1.23;1.13;;;1.30;99.90;;;;;;5013070;28;20428;-63
2023/01/17 03:09:58;;;;;;;1.63;1.35;;;1.20;99.90;;;;;;5014352;28;21011;-63
2023/01/17 03:12:27;;;;;;;2.00;0.95;;;1.20;99.90;;;;;;5009289;28;20428;-63
2023/01/17 03:14:54;;;;;;;3.80;1.17;;;1.00;99.90;;;;;;5017752;28;20930;-64
2023/01/17 03:17:23;;;;;;;3.53;1.52;;;1.10;99.90;;;;;;5021674;28;20481;-64
2023/01/17 03:19:50;;;;;;;3.67;1.27;;;1.00;99.90;;;;;;5016754;28;20424;-64
2023/01/17 03:22:17;;;;;;;1.70;1.23;;;1.10;99.90;;;;;;5017857;28;20425;-64
2023/01/17 03:24:43;;;;;;;3.67;1.70;;;1.10;99.90;;;;;;5018306;28;20459;-64
2023/01/17 03:27:10;;;;;;;2.28;1.65;;;1.10;99.90;;;;;;5016056;28;20421;-64
2023/01/17 03:29:37;;;;;;;3.03;2.00;;;1.10;99.90;;;;;;5015289;28;20469;-64
2023/01/17 03:32:04;;;;;;;2.72;2.05;;;1.20;99.90;;;;;;5013924;28;20432;-64
2023/01/17 03:34:32;;;;;;;3.10;2.50;;;1.20;99.90;;;;;;5015346;28;20490;-64
2023/01/17 03:36:59;;;;;;;4.80;2.95;;;1.20;99.90;;;;;;5009785;28;20421;-64
2023/01/17 03:39:25;;;;;;;5.20;2.92;;;1.10;99.90;;;;;;5017300;28;20420;-64
2023/01/17 03:41:52;;;;;;;6.78;3.60;;;1.20;99.90;;;;;;5021511;28;20419;-64
2023/01/17 03:44:18;;;;;;;7.28;3.65;;;1.30;99.90;;;;;;5019053;28;20832;-64
2023/01/17 03:46:45;;;;;;;6.57;3.80;;;1.30;99.90;;;;;;5020655;28;20473;-64
2023/01/17 03:49:12;;;;;;;6.88;3.90;;;1.40;99.90;;;;;;5022376;28;20451;-64
2023/01/17 03:51:40;;;;;;;7.40;4.20;;;1.40;99.90;;;;;;5022258;28;20513;-64
2023/01/17 03:54:07;;;;;;;7.10;4.40;;;1.40;99.90;;;;;;5022616;28;20907;-64
2023/01/17 03:56:34;;;;;;;9.85;4.20;;;1.40;99.90;;;;;;5021774;28;20423;-64
2023/01/17 03:59:01;;;;;;;8.00;4.53;;;1.40;99.90;;;;;;5021297;28;20478;-64
2023/01/17 04:01:28;;;;;;;7.05;4.18;;;1.40;99.90;;;;;;5025919;28;20414;-64
2023/01/17 04:03:54;;;;;;;5.75;3.55;;;1.40;99.90;;;;;;5020710;28;20426;-64
2023/01/17 04:06:21;;;;;;;6.88;4.05;;;1.50;99.90;;;;;;5017155;28;20532;-64
2023/01/17 04:08:49;;;;;;;7.57;4.10;;;1.40;99.90;;;;;;5020430;28;20772;-64
2023/01/17 04:11:16;;;;;;;7.68;4.70;;;1.50;99.90;;;;;;5022355;28;21126;-64
2023/01/17 04:13:42;;;;;;;8.80;4.53;;;1.40;99.90;;;;;;5016765;28;20412;-64
2023/01/17 04:16:13;;;;;;;7.72;4.60;;;1.50;99.90;;;;;;5021595;28;20428;-65
2023/01/17 04:18:39;;;;;;;7.57;4.30;;;1.50;99.90;;;;;;5021702;28;20769;-64
2023/01/17 04:21:06;;;;;;;7.97;4.18;;;1.60;99.90;;;;;;5021422;28;20419;-64
2023/01/17 04:23:33;;;;;;;6.68;3.92;;;1.60;99.90;;;;;;5019425;28;20501;-64
2023/01/17 04:26:02;;;;;;;6.57;3.70;;;1.70;99.90;;;;;;5015239;28;20511;-64
2023/01/17 04:28:29;;;;;;;5.00;3.53;;;1.70;99.90;;;;;;5018962;28;20773;-64
2023/01/17 04:30:57;;;;;;;8.10;4.18;;;1.60;99.90;;;;;;5022283;28;20424;-64
2023/01/17 04:33:24;;;;;;;5.70;3.63;;;1.60;99.90;;;;;;5021846;28;20432;-64
2023/01/17 04:35:53;;;;;;;6.40;3.92;;;1.70;99.90;;;;;;5016568;28;20415;-64
2023/01/17 04:38:19;;;;;;;8.38;4.00;;;1.70;99.90;;;;;;5019259;28;20419;-64
2023/01/17 04:40:47;;;;;;;6.00;4.00;;;1.70;99.90;;;;;;5018885;28;20857;-64
2023/01/17 04:43:15;;;;;;;9.18;4.55;;;1.70;99.90;;;;;;5016358;28;20434;-64
2023/01/17 04:45:42;;;;;;;7.75;4.93;;;1.70;99.90;;;;;;5016666;28;20978;-64
2023/01/17 04:48:11;;;;;;;7.88;5.38;;;1.70;99.90;;;;;;5021150;28;20482;-64
2023/01/17 04:50:38;;;;;;;9.85;5.85;;;1.60;99.90;;;;;;5020946;28;20420;-64
2023/01/17 04:53:04;;;;;;;11.60;6.70;;;1.70;99.90;;;;;;5020595;28;20420;-65
2023/01/17 04:55:31;;;;;;;11.90;8.00;;;1.70;99.90;;;;;;5018447;28;20839;-64
2023/01/17 04:57:58;;;;;;;11.68;8.52;;;1.80;99.90;;;;;;5018223;28;20421;-64
2023/01/17 05:00:26;;;;;;;15.40;8.73;;;1.80;99.90;;;;;;5020125;28;21174;-64
2023/01/17 05:02:53;;;;;;;12.68;8.02;;;1.80;99.90;;;;;;5020783;28;20420;-64
2023/01/17 05:05:20;;;;;;;13.50;8.45;;;1.80;99.90;;;;;;5017169;28;20433;-64
2023/01/17 05:07:53;;;;;;;14.25;8.38;;;1.80;99.90;;;;;;5015289;28;20479;-64
2023/01/17 05:10:20;;;;;;;15.88;8.00;;;1.80;99.90;;;;;;5018909;28;20942;-64
2023/01/17 05:12:53;;;;;;;11.45;7.03;;;1.80;99.90;;;;;;5014620;28;20423;-63
2023/01/17 05:15:20;;;;;;;11.85;7.70;;;1.80;99.90;;;;;;5017525;28;20466;-64
2023/01/17 05:17:48;;;;;;;12.18;7.22;;;1.70;99.90;;;;;;5015188;28;20842;-64
2023/01/17 05:20:15;;;;;;;11.73;7.10;;;1.70;99.90;;;;;;5023200;28;20423;-64
2023/01/17 05:22:42;;;;;;;14.55;6.82;;;1.70;99.90;;;;;;5018546;28;20427;-64
2023/01/17 05:25:09;;;;;;;12.88;6.63;;;1.70;99.90;;;;;;5020571;28;20432;-64
2023/01/17 05:27:37;;;;;;;11.10;6.23;;;1.60;99.90;;;;;;5020146;28;20875;-64
2023/01/17 05:30:04;;;;;;;9.65;6.07;;;1.60;99.90;;;;;;5017347;28;20849;-64
2023/01/17 05:32:31;;;;;;;10.07;6.20;;;1.50;99.90;;;;;;5016456;28;20425;-64
2023/01/17 05:35:01;;;;;;;9.32;6.00;;;1.60;99.90;;;;;;5014773;28;20420;-64
2023/01/17 05:37:27;;;;;;;11.13;6.60;;;1.60;99.90;;;;;;5016926;28;21070;-64
2023/01/17 05:39:54;;;;;;;11.38;6.32;;;1.60;99.90;;;;;;5012456;28;20431;-64
2023/01/17 05:42:21;;;;;;;9.75;6.20;;;1.60;99.90;;;;;;5015325;28;20421;-64
2023/01/17 05:44:48;;;;;;;10.82;6.70;;;1.60;99.90;;;;;;5019766;28;20488;-64
2023/01/17 05:47:14;;;;;;;11.35;6.85;;;1.70;99.90;;;;;;5014788;28;20494;-64
2023/01/17 05:49:41;;;;;;;10.35;6.55;;;1.70;99.90;;;;;;5021679;28;20422;-64
2023/01/17 05:52:09;;;;;;;10.48;6.70;;;1.70;99.90;;;;;;5020804;28;20443;-64
2023/01/17 05:54:36;;;;;;;10.27;6.53;;;1.70;99.90;;;;;;5017706;28;20537;-64
2023/01/17 05:57:02;;;;;;;11.07;6.50;;;1.70;99.90;;;;;;5017450;28;20428;-64
2023/01/17 05:59:29;;;;;;;11.37;6.43;;;1.60;99.90;;;;;;5013941;28;20482;-64
2023/01/17 06:01:56;;;;;;;11.15;6.10;;;1.60;99.90;;;;;;5021233;28;20473;-64
2023/01/17 06:04:22;;;;;;;11.10;6.28;;;1.60;99.90;;;;;;5016435;28;20480;-64
2023/01/17 06:06:49;;;;;;;11.90;6.53;;;1.70;99.90;;;;;;5020044;28;20472;-64
2023/01/17 06:09:17;;;;;;;11.52;6.63;;;1.70;99.90;;;;;;5013944;28;20901;-64
2023/01/17 06:11:44;;;;;;;12.65;6.88;;;1.70;99.90;;;;;;5013846;28;21195;-65
2023/01/17 06:14:10;;;;;;;10.90;7.00;;;1.80;99.90;;;;;;5013381;28;20416;-65
2023/01/17 06:16:37;;;;;;;11.57;7.45;;;1.80;99.90;;;;;;5013522;28;20486;-65
2023/01/17 06:19:04;;;;;;;11.88;7.35;;;1.90;99.90;;;;;;5017619;28;20544;-64
2023/01/17 06:21:30;;;;;;;13.43;7.97;;;1.70;99.90;;;;;;5020637;28;20834;-64
2023/01/17 06:23:57;;;;;;;13.32;8.35;;;1.70;99.90;;;;;;5012638;28;20424;-65
2023/01/17 06:26:25;;;;;;;15.88;8.95;;;1.70;99.90;;;;;;5016878;28;20436;-65
2023/01/17 06:28:52;;;;;;;13.65;8.00;;;1.70;99.90;;;;;;5015592;28;20424;-64
2023/01/17 06:31:18;;;;;;;14.52;8.68;;;1.60;99.90;;;;;;5019010;28;20415;-64
2023/01/17 06:33:45;;;;;;;13.50;8.63;;;1.60;99.90;;;;;;5017690;28;20423;-64
2023/01/17 06:36:12;;;;;;;14.25;8.95;;;1.60;99.90;;;;;;5017108;28;20423;-65
2023/01/17 06:38:38;;;;;;;13.32;8.80;;;1.70;99.90;;;;;;5019653;28;20425;-65
2023/01/17 06:41:06;;;;;;;15.35;8.68;;;1.70;99.90;;;;;;5019851;28;20429;-62
2023/01/17 06:43:34;;;;;;;15.23;9.27;;;1.70;99.90;;;;;;5019907;28;20872;-65
2023/01/17 06:46:01;;;;;;;19.27;9.43;;;1.70;99.90;;;;;;5019032;28;20438;-63
2023/01/17 06:48:27;;;;;;;17.02;9.73;;;1.70;99.90;;;;;;5014663;28;20424;-64
2023/01/17 06:50:54;;;;;;;17.63;10.38;;;1.70;99.90;;;;;;5014774;28;20435;-64
2023/01/17 06:53:21;;;;;;;18.55;10.63;;;1.70;99.90;;;;;;5020958;28;20474;-65
2023/01/17 06:55:47;;;;;;;17.15;10.63;;;1.60;99.90;;;;;;5019175;28;20522;-65
2023/01/17 06:58:14;;;;;;;15.73;10.40;;;1.70;99.90;;;;;;5015451;28;20426;-66
2023/01/17 07:00:43;;;;;;;17.42;10.57;;;1.70;99.90;;;;;;5013234;28;20417;-61
2023/01/17 07:03:18;;;;;;;14.20;9.90;;;1.70;99.90;;;;;;5016947;28;20436;-61
2023/01/17 07:05:45;;;;;;;18.10;11.50;;;1.70;99.90;;;;;;5014616;28;20527;-61
2023/01/17 07:08:11;;;;;;;16.98;11.05;;;1.70;99.90;;;;;;5017616;28;20455;-62
2023/01/17 07:10:38;;;;;;;17.80;12.05;;;1.80;99.90;;;;;;5018305;28;20416;-62
2023/01/17 07:13:05;;;;;;;21.50;12.57;;;1.60;99.90;;;;;;5020821;28;20415;-62
2023/01/17 07:15:32;;;;;;;19.55;12.65;;;1.60;99.90;;;;;;5017096;28;20447;-62
2023/01/17 07:18:02;;;;;;;22.40;13.73;;;1.60;99.90;;;;;;5018572;28;20427;-63
2023/01/17 07:20:29;;;;;;;24.67;14.35;;;1.50;99.90;;;;;;5014499;28;20428;-62
2023/01/17 07:22:56;;;;;;;25.88;14.63;;;1.40;99.90;;;;;;5020876;28;20426;-62
2023/01/17 07:25:22;;;;;;;25.63;14.73;;;1.50;99.90;;;;;;5015335;28;20432;-63
2023/01/17 07:27:52;;;;;;;22.10;13.85;;;1.60;99.90;;;;;;5020062;28;20415;-63
2023/01/17 07:30:19;;;;;;;24.03;14.90;;;1.70;99.90;;;;;;5014349;28;20431;-63
2023/01/17 07:32:50;;;;;;;25.20;13.95;;;1.70;99.90;;;;;;5017505;28;20422;-62
2023/01/17 07:35:19;;;;;;;24.65;13.93;;;1.80;99.90;;;;;;5015992;28;20429;-62
2023/01/17 07:37:47;;;;;;;25.58;14.13;;;1.70;99.90;;;;;;5016482;28;20424;-63
2023/01/17 07:40:16;;;;;;;24.60;14.18;;;1.70;99.90;;;;;;5018302;28;20411;-62
2023/01/17 07:42:42;;;;;;;21.02;12.93;;;1.80;99.90;;;;;;5018513;28;20452;-62
2023/01/17 07:45:11;;;;;;;24.33;13.98;;;1.80;99.90;;;;;;5016766;28;20436;-62
2023/01/17 07:47:37;;;;;;;21.67;13.75;;;1.80;99.90;;;;;;5019072;28;20911;-62
2023/01/17 07:50:05;;;;;;;23.13;14.60;;;1.80;99.90;;;;;;5018544;28;20827;-62
2023/01/17 07:52:33;;;;;;;25.73;14.77;;;1.80;99.90;;;;;;5017469;28;20438;-62
2023/01/17 07:55:00;;;;;;;23.80;14.70;;;1.70;99.90;;;;;;5019225;28;20813;-62
2023/01/17 07:57:26;;;;;;;25.40;14.93;;;1.70;99.90;;;;;;5017515;28;20420;-62
2023/01/17 07:59:53;;;;;;;26.60;14.60;;;1.70;99.90;;;;;;5012043;28;20432;-63
2023/01/17 08:02:21;;;;;;;26.95;15.23;;;1.70;99.90;;;;;;5019200;28;20413;-62
2023/01/17 08:04:49;;;;;;;25.17;15.50;;;1.70;99.90;;;;;;5014651;28;20428;-62
2023/01/17 08:07:16;;;;;;;23.42;14.82;;;1.80;99.90;;;;;;5019595;28;20428;-62
2023/01/17 08:09:48;;;;;;;28.08;15.77;;;1.70;99.90;;;;;;5015144;28;20436;-62
2023/01/17 08:12:15;;;;;;;27.65;16.05;;;1.60;99.90;;;;;;5015732;28;20423;-63
2023/01/17 08:14:42;;;;;;;25.45;15.43;;;1.60;99.90;;;;;;5016033;28;20495;-62
2023/01/17 08:17:13;;;;;;;26.63;16.67;;;1.70;99.90;;;;;;5015743;28;20409;-63
2023/01/17 08:19:40;;;;;;;30.27;17.10;;;1.70;99.90;;;;;;5015480;28;20443;-62
2023/01/17 08:22:07;;;;;;;28.77;16.10;;;1.70;99.90;;;;;;5020269;28;20488;-62
2023/01/17 08:24:34;;;;;;;28.98;17.13;;;1.70;99.90;;;;;;5016999;28;20417;-62
2023/01/17 08:27:02;;;;;;;27.30;17.40;;;1.70;99.90;;;;;;5015424;28;20951;-64
2023/01/17 08:29:29;;;;;;;33.40;18.30;;;1.60;99.90;;;;;;5016633;28;20427;-62
2023/01/17 08:31:55;;;;;;;30.85;18.52;;;1.20;99.90;;;;;;5018468;28;20531;-61
2023/01/17 08:34:22;;;;;;;31.30;18.10;;;1.40;99.90;;;;;;5017198;28;20454;-62
2023/01/17 08:36:51;;;;;;;31.33;18.65;;;1.40;99.90;;;;;;5020313;28;20868;-62
2023/01/17 08:39:18;;;;;;;33.33;19.83;;;1.40;99.90;;;;;;5019362;28;20456;-62
2023/01/17 08:41:45;;;;;;;33.23;19.60;;;1.20;99.90;;;;;;5022028;28;20419;-62
2023/01/17 08:44:14;;;;;;;29.65;19.40;;;1.30;99.90;;;;;;5021035;28;20423;-62
2023/01/17 08:46:42;;;;;;;31.23;19.60;;;1.40;99.90;;;;;;5020026;28;20519;-62
2023/01/17 08:49:11;;;;;;;32.30;19.20;;;1.50;99.90;;;;;;5020189;28;20477;-62
2023/01/17 08:51:38;;;;;;;31.25;19.25;;;1.70;99.90;;;;;;5022602;28;20435;-62
2023/01/17 08:54:05;;;;;;;26.65;17.75;;;1.70;99.90;;;;;;5014744;28;20428;-62
2023/01/17 08:56:31;;;;;;;29.48;17.50;;;1.70;99.90;;;;;;5019982;28;20413;-62
2023/01/17 08:58:58;;;;;;;31.02;18.00;;;1.80;99.90;;;;;;5017537;28;20920;-62
2023/01/17 09:01:26;;;;;;;27.05;16.98;;;1.80;99.90;;;;;;5020603;28;20415;-63
2023/01/17 09:03:53;;;;;;;28.38;17.92;;;1.80;99.90;;;;;;5019488;28;20984;-63
2023/01/17 09:06:19;;;;;;;27.73;17.13;;;1.80;99.90;;;;;;5015331;28;20993;-63
2023/01/17 09:08:48;;;;;;;31.67;17.87;;;1.70;99.90;;;;;;5023061;28;20470;-62
2023/01/17 09:11:17;;;;;;;29.48;17.42;;;1.80;99.90;;;;;;5016943;28;20460;-63
2023/01/17 09:13:43;;;;;;;29.30;17.13;;;1.80;99.90;;;;;;5016371;28;20412;-62
2023/01/17 09:16:10;;;;;;;30.48;18.23;;;1.90;99.90;;;;;;5016655;28;20499;-62
2023/01/17 09:18:38;;;;;;;29.47;17.73;;;1.70;99.90;;;;;;5023584;28;20473;-63
2023/01/17 09:21:12;;;;;;;27.40;17.73;;;1.80;99.90;;;;;;5019294;28;20421;-62
2023/01/17 09:23:39;;;;;;;29.65;17.23;;;1.90;99.90;;;;;;5021293;28;20412;-62
2023/01/17 09:26:05;;;;;;;28.90;17.02;;;2.10;99.90;;;;;;5019384;28;21199;-61
2023/01/17 09:28:39;;;;;;;27.40;17.10;;;2.20;99.90;;;;;;5023296;28;20426;-62
2023/01/17 09:31:07;;;;;;;27.27;16.47;;;2.30;99.90;;;;;;5014995;28;20429;-63
2023/01/17 09:33:34;;;;;;;27.60;16.67;;;2.30;99.90;;;;;;5020202;28;20507;-63
2023/01/17 09:36:04;;;;;;;24.88;16.45;;;2.40;99.90;;;;;;5017896;28;20452;-63
2023/01/17 09:38:31;;;;;;;27.33;17.10;;;2.30;99.90;;;;;;5023578;28;20496;-62
2023/01/17 09:40:58;;;;;;;29.55;17.13;;;2.20;99.90;;;;;;5015547;28;20425;-62
2023/01/17 09:43:33;;;;;;;28.63;17.52;;;2.30;99.90;;;;;;5021493;28;20464;-62
2023/01/17 09:46:00;;;;;;;27.70;15.40;;;2.40;99.90;;;;;;5013751;28;20555;-62
2023/01/17 09:48:36;;;;;;;28.40;15.75;;;2.00;99.90;;;;;;5023521;28;20473;-63
2023/01/17 09:51:09;;;;;;;24.70;14.77;;;2.10;99.90;;;;;;5017370;28;20437;-63
2023/01/17 09:53:38;;;;;;;27.63;15.73;;;1.90;99.90;;;;;;5019503;28;20815;-63
2023/01/17 09:56:10;;;;;;;29.58;16.25;;;1.90;99.90;;;;;;5015033;28;20545;-62
2023/01/17 09:58:43;;;;;;;25.60;15.73;;;2.00;99.90;;;;;;5019248;28;20847;-63
2023/01/17 10:01:18;;;;;;;26.60;16.27;;;2.10;99.90;;;;;;5019158;28;20898;-63
2023/01/17 10:04:05;;;;;;;23.60;14.32;;;2.20;99.90;;;;;;5021134;28;20459;-63
2023/01/17 10:06:45;;;;;;;24.15;14.93;;;2.30;99.90;;;;;;5019814;28;20815;-62
2023/01/17 10:09:38;;;;;;;27.05;15.10;;;2.50;99.90;;;;;;5024196;28;20411;-63
2023/01/17 10:12:17;;;;;;;22.27;13.77;;;2.40;99.90;;;;;;5016186;28;20447;-63
2023/01/17 10:14:56;;;;;;;24.00;14.82;;;2.30;99.90;;;;;;5022789;28;20419;-63
2023/01/17 10:17:35;;;;;;;25.38;13.95;;;2.20;99.90;;;;;;5019149;28;20432;-63
2023/01/17 10:20:32;;;;;;;24.93;13.77;;;2.40;99.90;;;;;;5011380;28;20980;-63
2023/01/17 10:23:26;;;;;;;23.27;14.15;;;2.50;99.90;;;;;;5019431;28;20476;-63
2023/01/17 10:25:56;;;;;;;22.38;13.20;;;2.60;99.90;;;;;;5021661;28;20431;-66
2023/01/17 10:28:27;;;;;;;23.17;13.00;;;2.80;99.90;;;;;;5016420;28;20425;-67
2023/01/17 10:30:59;;;;;;;23.20;13.50;;;2.40;99.90;;;;;;5014772;28;20421;-64
2023/01/17 10:33:29;;;;;;;23.02;13.40;;;2.50;99.90;;;;;;5016324;28;20761;-65
2023/01/17 10:35:58;;;;;;;21.40;12.55;;;2.50;99.90;;;;;;5014967;28;20424;-64
2023/01/17 10:38:32;;;;;;;22.42;13.57;;;2.60;99.90;;;;;;5017013;28;20421;-65
2023/01/17 10:41:03;;;;;;;23.58;13.32;;;2.50;99.90;;;;;;5017741;28;20420;-65
2023/01/17 10:43:39;;;;;;;26.23;13.60;;;2.60;99.90;;;;;;5017498;28;20424;-65
2023/01/17 10:46:11;;;;;;;24.52;13.73;;;2.60;99.90;;;;;;5014481;28;20495;-63
2023/01/17 10:48:40;;;;;;;25.13;14.05;;;2.80;99.90;;;;;;5021631;28;20851;-64
2023/01/17 10:51:19;;;;;;;19.98;12.73;;;2.80;99.90;;;;;;5019183;28;20408;-63
2023/01/17 10:54:03;;;;;;;19.17;12.57;;;2.80;99.90;;;;;;5016158;28;20482;-63
2023/01/17 10:56:30;;;;;;;19.33;11.70;;;2.90;99.90;;;;;;5014991;28;20435;-63
2023/01/17 10:59:23;;;;;;;20.08;12.07;;;3.10;99.90;;;;;;5012257;28;20421;-65
2023/01/17 11:01:50;;;;;;;24.55;12.82;;;3.10;99.90;;;;;;5021810;28;20466;-64
2023/01/17 11:04:20;;;;;;;24.02;11.85;;;3.10;99.90;;;;;;5014852;28;20477;-64
2023/01/17 11:06:47;;;;;;;19.77;11.82;;;3.30;99.90;;;;;;5017040;28;20459;-64
2023/01/17 11:09:15;;;;;;;18.05;10.25;;;3.40;99.90;;;;;;5019114;28;20416;-64
2023/01/17 11:11:49;;;;;;;20.23;10.63;;;3.60;99.90;;;;;;5018757;28;20462;-64
2023/01/17 11:14:18;;;;;;;15.73;10.57;;;3.60;99.90;;;;;;5015001;28;20463;-64
2023/01/17 11:16:45;;;;;;;15.98;10.15;;;3.70;99.90;;;;;;5012340;28;20417;-64
2023/01/17 11:19:17;;;;;;;20.42;10.55;;;3.60;99.90;;;;;;5018785;28;21304;-64
2023/01/17 11:21:52;;;;;;;19.52;10.38;;;3.70;99.90;;;;;;5018812;28;20428;-67
2023/01/17 11:24:28;;;;;;;21.30;10.32;;;3.70;99.90;;;;;;5014466;28;20419;-68
2023/01/17 11:26:55;;;;;;;20.10;10.32;;;3.50;92.50;;;;;;5013152;28;20440;-67
2023/01/17 11:29:33;;;;;;;17.00;10.48;;;3.50;90.50;;;;;;5018666;28;20420;-67
2023/01/17 11:32:27;;;;;;;18.42;9.70;;;3.30;95.60;;;;;;5019276;28;20413;-67
2023/01/17 11:35:06;;;;;;;19.67;10.15;;;3.00;99.90;;;;;;5020522;28;20431;-66
2023/01/17 11:37:34;;;;;;;15.20;9.00;;;3.20;99.90;;;;;;5018883;28;20416;-67
2023/01/17 11:40:09;;;;;;;19.70;9.45;;;3.00;99.90;;;;;;5018512;28;20503;-66
2023/01/17 11:42:37;;;;;;;18.33;8.80;;;3.00;99.90;;;;;;5017846;28;20421;-65
2023/01/17 11:45:24;;;;;;;20.20;9.10;;;2.80;99.90;;;;;;5013757;28;20440;-65
2023/01/17 11:48:14;;;;;;;18.35;9.57;;;2.80;99.90;;;;;;5020955;28;20518;-64
2023/01/17 11:50:45;;;;;;;17.88;9.60;;;2.80;99.90;;;;;;5018184;28;20509;-65
2023/01/17 11:53:23;;;;;;;14.98;8.65;;;1.60;99.90;;;;;;5017867;28;20835;-64
2023/01/17 11:55:59;;;;;;;17.63;8.57;;;2.90;99.90;;;;;;5012832;28;20435;-65
2023/01/17 11:58:28;;;;;;;16.10;8.15;;;2.90;99.90;;;;;;5014524;28;20424;-65
2023/01/17 12:01:04;;;;;;;16.00;7.88;;;3.10;99.90;;;;;;5017046;28;20443;-65
2023/01/17 12:04:03;;;;;;;15.52;7.90;;;3.20;99.90;;;;;;5017075;28;20942;-64
2023/01/17 12:06:37;;;;;;;14.25;8.40;;;3.30;99.90;;;;;;5005748;28;20441;-65
2023/01/17 12:09:13;;;;;;;14.65;8.45;;;3.50;99.90;;;;;;5022320;28;20470;-65
2023/01/17 12:14:53;;;;;;;14.00;7.57;;;3.80;99.90;;;;;;5023098;28;20791;-65
2023/01/17 12:17:33;;;;;;;18.50;8.60;;;4.00;72.50;;;;;;5019747;28;20413;-65
2023/01/17 12:20:04;;;;;;;12.38;7.63;;;4.00;57.90;;;;;;5025284;28;20919;-65
2023/01/17 12:23:00;;;;;;;13.13;7.30;;;3.80;46.60;;;;;;5020964;28;20428;-65
2023/01/17 12:25:37;;;;;;;14.25;6.95;;;3.80;47.20;;;;;;5018733;28;20811;-65
2023/01/17 12:28:19;;;;;;;12.20;6.82;;;3.90;37.10;;;;;;5018019;28;20527;-65
2023/01/17 12:31:01;;;;;;;12.52;7.00;;;3.80;30.00;;;;;;5016272;28;20421;-65
2023/01/17 12:33:36;;;;;;;12.40;6.90;;;4.70;30.20;;;;;;5016393;28;20424;-64
2023/01/17 12:36:16;;;;;;;15.70;8.50;;;3.70;39.60;;;;;;5019914;28;20927;-65
2023/01/17 12:38:45;;;;;;;12.77;8.33;;;3.70;53.50;;;;;;5017668;28;20511;-66
2023/01/17 12:41:17;;;;;;;14.55;8.32;;;3.50;72.20;;;;;;5015062;28;20471;-65
2023/01/17 12:43:46;;;;;;;20.83;8.40;;;3.50;79.10;;;;;;5017331;28;21017;-65
2023/01/17 12:46:19;;;;;;;15.38;7.55;;;3.50;80.00;;;;;;5015177;28;20421;-66
2023/01/17 12:48:50;;;;;;;14.75;7.55;;;3.50;66.80;;;;;;5017981;28;20425;-66
2023/01/17 12:51:23;;;;;;;10.55;7.22;;;3.50;68.50;;;;;;5022406;28;20780;-65
2023/01/17 12:53:59;;;;;;;12.18;7.13;;;3.50;85.20;;;;;;5015210;28;20424;-66
2023/01/17 12:56:32;;;;;;;15.45;7.25;;;3.60;91.60;;;;;;5021604;28;20904;-65
2023/01/17 12:59:11;;;;;;;14.00;6.57;;;3.80;69.50;;;;;;5018709;28;20413;-65
2023/01/17 13:01:41;;;;;;;10.27;6.03;;;5.20;16.20;;;;;;5022463;28;20772;-65
2023/01/17 13:04:17;;;;;;;12.57;5.82;;;3.90;25.00;;;;;;5021643;28;20847;-65
2023/01/17 13:06:54;;;;;;;9.90;6.53;;;4.20;7.30;;;;;;5020052;28;20432;-65
2023/01/17 13:09:22;;;;;;;10.95;5.82;;;4.20;1.00;;;;;;5021534;28;20895;-65
2023/01/17 13:11:55;;;;;;;12.88;5.95;;;4.30;13.40;;;;;;5015976;28;21206;-65
2023/01/17 13:14:23;;;;;;;14.05;5.88;;;4.50;1.00;;;;;;5021415;28;20757;-65
2023/01/17 13:16:56;;;;;;;13.70;6.00;;;4.40;1.00;;;;;;5012744;28;20776;-65
2023/01/17 13:19:31;;;;;;;13.13;5.88;;;4.30;1.00;;;;;;5021000;28;20425;-65
2023/01/17 13:22:00;;;;;;;12.95;6.00;;;4.40;1.00;;;;;;5021042;28;20777;-66
2023/01/17 13:24:41;;;;;;;15.75;5.97;;;4.50;1.00;;;;;;5021761;28;20432;-66
2023/01/17 13:27:34;;;;;;;10.10;5.22;;;4.30;1.00;;;;;;5017325;28;20451;-65
2023/01/17 13:30:25;;;;;;;11.70;5.20;;;4.20;1.00;;;;;;5024480;28;20475;-65
2023/01/17 13:33:14;;;;;;;11.13;5.60;;;4.30;1.00;;;;;;5020528;28;20815;-64
2023/01/17 13:35:50;;;;;;;13.03;6.60;;;4.40;1.00;;;;;;5017735;28;20989;-66
2023/01/17 13:38:53;;;;;;;15.82;5.63;;;4.40;1.00;;;;;;5019738;28;20418;-66
2023/01/17 13:41:44;;;;;;;10.98;5.25;;;4.50;1.00;;;;;;5020777;28;20430;-65
2023/01/17 13:44:23;;;;;;;10.00;5.10;;;4.50;1.00;;;;;;5019776;28;20427;-66
2023/01/17 13:47:00;;;;;;;10.60;5.50;;;4.50;1.00;;;;;;5014556;28;20443;-66
2023/01/17 13:49:42;;;;;;;12.82;5.03;;;4.60;1.00;;;;;;5018406;28;20896;-66
2023/01/17 13:52:11;;;;;;;9.23;5.07;;;4.70;1.00;;;;;;5024010;28;20415;-66
2023/01/17 13:54:49;;;;;;;11.50;5.70;;;4.80;1.00;;;;;;5019140;28;20478;-66
2023/01/17 13:57:42;;;;;;;11.00;5.78;;;4.80;1.00;;;;;;5016252;28;20416;-67
2023/01/17 14:00:58;;;;;;;12.95;5.60;;;4.90;1.00;;;;;;5019722;28;20418;-67
2023/01/17 14:04:06;;;;;;;12.38;5.72;;;4.90;1.00;;;;;;5021664;28;20419;-66
2023/01/17 14:06:40;;;;;;;11.38;5.63;;;4.60;1.00;;;;;;5020726;28;20416;-66
2023/01/17 14:09:14;;;;;;;9.20;5.53;;;4.50;1.00;;;;;;5020367;28;20819;-67
2023/01/17 14:11:54;;;;;;;12.07;5.03;;;4.60;1.00;;;;;;5015521;28;20424;-66
2023/01/17 14:14:45;;;;;;;9.93;4.82;;;4.70;1.00;;;;;;5017689;28;20504;-66
2023/01/17 14:17:44;;;;;;;12.45;5.05;;;4.60;1.00;;;;;;5021031;28;20407;-66
2023/01/17 14:20:40;;;;;;;10.02;5.00;;;4.60;1.00;;;;;;5023420;28;20412;-67
2023/01/17 14:23:29;;;;;;;9.60;4.60;;;4.60;1.00;;;;;;5017850;28;20423;-65
2023/01/17 14:26:00;;;;;;;10.80;4.88;;;4.40;1.00;;;;;;5016216;28;20486;-65
2023/01/17 14:28:30;;;;;;;9.57;4.85;;;4.50;1.00;;;;;;5015808;28;20436;-65
2023/01/17 14:30:59;;;;;;;11.15;4.63;;;4.30;1.00;;;;;;5019683;28;20419;-65
2023/01/17 14:33:29;;;;;;;11.63;4.85;;;4.00;1.00;;;;;;5017903;28;20429;-65
2023/01/17 14:36:00;;;;;;;10.00;4.50;;;4.00;1.00;;;;;;5022269;28;20861;-67